Terminal Aerodrome Forecast
Issued by NWS

Home | Current Version | Previous Version | Text Only | Print | Product List | Glossary On
Versions: 1 2 3 4 5 6 7 8 9 10 11 12 13 14 15 16 17 18
000
FTUS43 KDTX 232320
TAFPTK
TAF
KPTK 232320Z 2400/2424 03007KT P6SM SCT035 BKN150
     FM240300 06008KT P6SM SCT012 OVC025
     FM240600 06009KT 3SM -SHRA BR BKN007 OVC018
     FM241200 12007KT 2SM -DZ BR BKN004 OVC012
     FM241700 16012KT P6SM BKN015 BKN022
     FM241900 17013G20KT P6SM BKN040=

USA.gov is the U.S. government's official web portal to all federal, state and local government web resources and services.